createdAt,value
2018-11-11T00:00:25.666Z,8.72
2018-11-11T00:02:55.791Z,8.71
2018-11-11T00:05:25.579Z,8.70
2018-11-11T00:07:58.820Z,8.68
2018-11-11T00:10:28.575Z,8.65
2018-11-11T00:12:59.897Z,8.63
2018-11-11T00:15:31.293Z,8.67
2018-11-11T00:18:04.044Z,8.71
2018-11-11T00:20:34.025Z,8.71
2018-11-11T00:23:03.734Z,8.67
2018-11-11T00:25:33.562Z,8.70
2018-11-11T00:28:04.014Z,8.79
2018-11-11T00:30:33.740Z,8.80
2018-11-11T00:33:03.515Z,8.82
2018-11-11T00:35:33.213Z,8.82
2018-11-11T00:38:04.975Z,8.79
2018-11-11T00:40:34.538Z,8.76
2018-11-11T00:43:04.631Z,8.77
2018-11-11T00:45:34.360Z,8.76
2018-11-11T00:48:04.106Z,8.80
2018-11-11T00:50:34.125Z,8.84
2018-11-11T00:53:03.862Z,8.82
2018-11-11T00:55:38.630Z,8.78
2018-11-11T00:58:08.631Z,8.80
2018-11-11T01:00:38.407Z,8.80
2018-11-11T01:03:08.089Z,8.83
2018-11-11T01:05:37.806Z,8.87
2018-11-11T01:08:09.673Z,8.88
2018-11-11T01:10:39.280Z,8.89
2018-11-11T01:13:08.936Z,8.91
2018-11-11T01:15:38.708Z,8.91
2018-11-11T01:18:08.347Z,8.89
2018-11-11T01:20:38.047Z,8.94
2018-11-11T01:23:07.896Z,8.96
2018-11-11T01:25:37.579Z,9.00
2018-11-11T01:28:16.910Z,9.02
2018-11-11T01:30:46.767Z,9.00
2018-11-11T01:33:16.755Z,8.96
2018-11-11T01:35:46.711Z,8.94
2018-11-11T01:38:16.446Z,8.95
2018-11-11T01:40:46.207Z,8.88
2018-11-11T01:43:15.862Z,8.90
2018-11-11T01:45:45.656Z,8.91
2018-11-11T01:48:15.440Z,8.94
2018-11-11T01:50:45.145Z,8.88
2018-11-11T01:53:14.946Z,8.88
2018-11-11T01:55:44.641Z,8.90
2018-11-11T01:58:22.063Z,8.91
2018-11-11T02:01:00.428Z,8.92
2018-11-11T02:03:30.926Z,8.94
2018-11-11T02:06:07.582Z,8.94
2018-11-11T02:08:37.960Z,8.94
2018-11-11T02:11:07.651Z,8.97
2018-11-11T02:13:37.259Z,9.02
2018-11-11T02:16:07.823Z,9.02
2018-11-11T02:18:37.620Z,9.04
2018-11-11T02:21:07.836Z,9.04
2018-11-11T02:23:37.682Z,9.05
2018-11-11T02:26:07.711Z,9.05
2018-11-11T02:28:37.576Z,9.02
2018-11-11T02:31:07.713Z,8.95
2018-11-11T02:33:37.521Z,8.91
2018-11-11T02:36:25.266Z,8.91
2018-11-11T02:38:55.494Z,8.95
2018-11-11T02:41:25.270Z,9.00
2018-11-11T02:43:54.962Z,9.04
2018-11-11T02:46:24.701Z,9.06
2018-11-11T02:48:54.410Z,9.09
2018-11-11T02:51:34.501Z,9.08
2018-11-11T02:54:04.299Z,9.07
2018-11-11T02:56:33.894Z,9.11
2018-11-11T02:59:03.679Z,9.08
2018-11-11T03:01:33.396Z,9.04
2018-11-11T03:04:03.142Z,9.05
2018-11-11T03:06:33.064Z,8.99
2018-11-11T03:09:02.836Z,8.92
2018-11-11T03:11:32.540Z,8.90
2018-11-11T03:14:02.253Z,8.86
2018-11-11T03:16:31.971Z,8.91
2018-11-11T03:19:01.747Z,8.97
2018-11-11T03:21:31.607Z,9.00
2018-11-11T03:24:01.835Z,8.93
2018-11-11T03:26:31.785Z,8.86
2018-11-11T03:29:01.567Z,8.85
2018-11-11T03:31:31.215Z,8.90
2018-11-11T03:34:01.447Z,8.91
2018-11-11T03:36:31.099Z,8.89
2018-11-11T03:39:04.771Z,8.90
2018-11-11T03:41:34.578Z,8.92
2018-11-11T03:44:04.470Z,8.94
2018-11-11T03:46:34.253Z,8.96
2018-11-11T03:49:05.256Z,9.00
2018-11-11T03:51:35.073Z,9.06
2018-11-11T03:54:23.042Z,9.15
2018-11-11T03:56:52.751Z,9.22
2018-11-11T03:59:24.510Z,9.28
2018-11-11T04:01:56.808Z,9.34
2018-11-11T04:04:26.724Z,9.40
2018-11-11T04:06:56.484Z,9.45
2018-11-11T04:09:26.391Z,9.50
2018-11-11T04:11:56.131Z,9.63
2018-11-11T04:14:25.852Z,9.67
2018-11-11T04:16:55.571Z,9.60
2018-11-11T04:19:25.213Z,9.57
2018-11-11T04:21:54.936Z,9.54
2018-11-11T04:24:24.728Z,9.50
2018-11-11T04:26:54.470Z,9.46
2018-11-11T04:29:24.190Z,9.42
2018-11-11T04:31:53.934Z,9.36
2018-11-11T04:34:23.763Z,9.35
2018-11-11T04:36:53.491Z,9.36
2018-11-11T04:39:23.218Z,9.28
2018-11-11T04:41:52.853Z,9.23
2018-11-11T04:44:22.637Z,9.24
2018-11-11T04:46:52.399Z,9.27
2018-11-11T04:49:26.134Z,9.27
2018-11-11T04:51:55.959Z,9.28
2018-11-11T04:54:25.787Z,9.28
2018-11-11T04:56:55.606Z,9.26
2018-11-11T04:59:25.328Z,9.33
2018-11-11T05:01:55.126Z,9.41
2018-11-11T05:04:24.848Z,9.46
2018-11-11T05:06:54.558Z,9.56
2018-11-11T05:09:24.322Z,9.59
2018-11-11T05:12:07.639Z,9.61
2018-11-11T05:14:37.459Z,9.61
2018-11-11T05:17:07.449Z,9.58
2018-11-11T05:19:40.412Z,9.57
2018-11-11T05:22:10.179Z,9.57
2018-11-11T05:24:40.046Z,9.55
2018-11-11T05:27:09.839Z,9.54
2018-11-11T05:29:39.647Z,9.52
2018-11-11T05:32:15.083Z,9.48
2018-11-11T05:34:45.466Z,9.41
2018-11-11T05:37:16.135Z,9.46
2018-11-11T05:39:46.168Z,9.43
2018-11-11T05:42:15.823Z,9.42
2018-11-11T05:44:49.607Z,9.35
2018-11-11T05:47:19.283Z,9.42
2018-11-11T05:49:48.965Z,9.45
2018-11-11T05:52:19.916Z,9.39
2018-11-11T05:54:49.615Z,9.37
2018-11-11T05:57:19.374Z,9.35
2018-11-11T05:59:49.077Z,9.34
2018-11-11T06:02:18.787Z,9.29
2018-11-11T06:04:48.655Z,9.30
2018-11-11T06:07:19.019Z,9.34
2018-11-11T06:09:48.683Z,9.34
2018-11-11T06:12:18.483Z,9.40
2018-11-11T06:14:48.297Z,9.42
2018-11-11T06:17:17.928Z,9.41
2018-11-11T06:19:47.569Z,9.41
2018-11-11T06:22:19.416Z,9.44
2018-11-11T06:24:50.690Z,9.48
2018-11-11T06:27:20.778Z,9.48
2018-11-11T06:29:50.396Z,9.51
2018-11-11T06:32:20.050Z,9.55
2018-11-11T06:34:49.718Z,9.64
2018-11-11T06:37:20.386Z,9.61
2018-11-11T06:39:50.112Z,9.64
2018-11-11T06:42:19.790Z,9.69
2018-11-11T06:44:49.555Z,9.69
2018-11-11T06:47:20.200Z,9.73
2018-11-11T06:49:49.955Z,9.77
2018-11-11T06:52:19.726Z,9.76
2018-11-11T06:54:50.304Z,9.80
2018-11-11T06:57:20.624Z,9.85
2018-11-11T06:59:50.429Z,9.86
2018-11-11T07:02:20.175Z,9.85
2018-11-11T07:04:50.903Z,9.87
2018-11-11T07:07:20.557Z,9.88
2018-11-11T07:09:50.350Z,9.96
2018-11-11T07:12:20.473Z,9.97
2018-11-11T07:14:50.535Z,10.02
2018-11-11T07:17:20.157Z,10.07
2018-11-11T07:19:49.878Z,10.17
2018-11-11T07:22:19.560Z,10.23
2018-11-11T07:24:49.994Z,10.16
2018-11-11T07:27:20.838Z,10.22
2018-11-11T07:29:50.611Z,10.25
2018-11-11T07:32:20.427Z,10.20
2018-11-11T07:34:50.372Z,10.24
2018-11-11T07:37:27.120Z,10.30
2018-11-11T07:40:08.290Z,10.23
2018-11-11T07:42:38.136Z,10.26
2018-11-11T07:45:08.015Z,10.34
2018-11-11T07:47:39.240Z,10.43
2018-11-11T07:50:21.274Z,10.38
2018-11-11T07:52:51.764Z,10.36
2018-11-11T07:55:21.813Z,10.35
2018-11-11T07:57:51.781Z,10.32
2018-11-11T08:00:22.348Z,10.40
2018-11-11T08:02:52.539Z,10.43
2018-11-11T08:05:22.403Z,10.42
2018-11-11T08:07:52.671Z,10.44
2018-11-11T08:10:39.180Z,10.56
2018-11-11T08:13:33.541Z,10.52
2018-11-11T08:16:03.414Z,10.49
2018-11-11T08:18:33.076Z,10.57
2018-11-11T08:21:16.566Z,10.62
2018-11-11T08:23:46.302Z,10.47
2018-11-11T08:26:27.632Z,10.44
2018-11-11T08:28:57.346Z,10.43
2018-11-11T08:31:27.062Z,10.48
2018-11-11T08:34:00.779Z,10.55
2018-11-11T08:36:30.505Z,10.50
2018-11-11T08:39:00.793Z,10.49
2018-11-11T08:41:30.486Z,10.53
2018-11-11T08:44:00.386Z,10.60
2018-11-11T08:46:30.193Z,10.67
2018-11-11T08:48:59.846Z,10.67
2018-11-11T08:51:29.666Z,10.63
2018-11-11T08:53:59.451Z,10.75
2018-11-11T08:56:58.322Z,10.80
2018-11-11T08:59:28.604Z,10.82
2018-11-11T09:01:58.283Z,10.90
2018-11-11T09:04:29.944Z,11.07
2018-11-11T09:06:59.616Z,11.30
2018-11-11T09:09:29.328Z,11.27
2018-11-11T09:12:04.672Z,11.19
2018-11-11T09:14:34.473Z,11.12
2018-11-11T09:17:04.216Z,11.10
2018-11-11T09:19:40.450Z,11.00
2018-11-11T09:22:10.164Z,11.25
2018-11-11T09:24:50.438Z,11.73
2018-11-11T09:27:21.297Z,11.46
2018-11-11T09:29:51.070Z,11.30
2018-11-11T09:32:31.387Z,11.64
2018-11-11T09:35:03.224Z,12.00
2018-11-11T09:37:32.970Z,12.90
2018-11-11T09:40:04.506Z,13.36
2018-11-11T09:42:34.938Z,13.88
2018-11-11T09:45:05.563Z,14.21
2018-11-11T09:47:39.133Z,14.91
2018-11-11T09:50:27.644Z,15.83
2018-11-11T09:52:57.373Z,16.46
2018-11-11T09:55:27.338Z,16.44
2018-11-11T09:58:03.399Z,15.53
2018-11-11T10:00:39.604Z,15.24
2018-11-11T10:03:21.573Z,14.34
2018-11-11T10:06:06.181Z,14.03
2018-11-11T10:08:58.416Z,14.27
2018-11-11T10:13:41.338Z,14.82
2018-11-11T10:16:16.566Z,14.62
2018-11-11T10:18:51.999Z,14.36
2018-11-11T10:22:26.977Z,14.29
2018-11-11T10:25:03.925Z,14.69
2018-11-11T10:27:49.864Z,14.80
2018-11-11T10:30:26.291Z,14.67
2018-11-11T10:33:18.061Z,14.45
2018-11-11T10:35:57.467Z,14.23
2018-11-11T10:38:35.057Z,13.75
2018-11-11T10:41:17.129Z,13.86
2018-11-11T10:43:58.506Z,13.67
2018-11-11T10:47:36.554Z,13.63
2018-11-11T10:50:08.981Z,13.64
2018-11-11T10:52:39.167Z,13.56
2018-11-11T10:55:09.214Z,13.61
2018-11-11T10:57:38.942Z,13.80
2018-11-11T11:00:14.004Z,13.58
2018-11-11T11:03:08.610Z,13.97
2018-11-11T11:05:42.343Z,14.25
2018-11-11T11:08:12.134Z,13.95
2018-11-11T11:10:43.192Z,13.74
2018-11-11T11:13:13.295Z,13.99
2018-11-11T11:15:45.343Z,14.18
2018-11-11T11:18:34.479Z,14.16
2018-11-11T11:21:04.643Z,14.40
2018-11-11T11:23:35.353Z,14.89
2018-11-11T11:26:05.459Z,15.70
2018-11-11T11:28:35.304Z,16.90
2018-11-11T11:31:05.228Z,18.48
2018-11-11T11:33:36.127Z,19.74
2018-11-11T11:36:06.058Z,19.87
2018-11-11T11:38:36.170Z,18.67
2018-11-11T11:41:09.146Z,20.33
2018-11-11T11:43:40.180Z,19.77
2018-11-11T11:46:10.234Z,19.21
2018-11-11T11:48:40.131Z,20.01
2018-11-11T11:51:28.014Z,20.17
2018-11-11T11:54:06.107Z,20.68
2018-11-11T11:56:37.143Z,20.48
2018-11-11T11:59:08.301Z,19.76
2018-11-11T12:01:38.357Z,19.04
2018-11-11T12:04:08.274Z,18.51
2018-11-11T12:06:38.060Z,17.29
2018-11-11T12:09:17.903Z,16.92
2018-11-11T12:11:47.660Z,17.70
2018-11-11T12:14:17.497Z,17.39
2018-11-11T12:16:47.346Z,17.05
2018-11-11T12:19:30.843Z,17.59
2018-11-11T12:22:01.055Z,17.31
2018-11-11T12:24:30.778Z,17.44
2018-11-11T12:27:03.660Z,17.57
2018-11-11T12:29:53.510Z,16.95
2018-11-11T12:32:24.251Z,17.54
2018-11-11T12:34:54.316Z,17.80
2018-11-11T12:37:23.993Z,17.82
2018-11-11T12:39:54.053Z,18.03
2018-11-11T12:42:23.603Z,17.65
2018-11-11T12:44:53.933Z,18.16
2018-11-11T12:47:24.168Z,18.85
2018-11-11T12:50:16.317Z,18.60
2018-11-11T12:52:46.824Z,19.44
2018-11-11T12:55:16.900Z,20.70
2018-11-11T12:57:46.637Z,21.93
2018-11-11T13:00:16.812Z,21.41
2018-11-11T13:02:46.651Z,20.90
2018-11-11T13:05:16.463Z,20.23
2018-11-11T13:07:48.004Z,20.13
2018-11-11T13:10:17.910Z,20.88
2018-11-11T13:15:40.198Z,21.04
2018-11-11T13:21:15.523Z,20.52
2018-11-11T13:23:45.228Z,19.83
2018-11-11T13:26:15.673Z,19.96
2018-11-11T13:28:45.420Z,19.69
2018-11-11T13:31:15.421Z,19.17
2018-11-11T13:33:45.222Z,19.30
2018-11-11T13:36:15.100Z,19.50
2018-11-11T13:41:50.751Z,18.76
2018-11-11T13:44:20.503Z,19.30
2018-11-11T13:46:50.530Z,20.07
2018-11-11T13:49:20.402Z,21.46
2018-11-11T13:51:50.205Z,21.61
2018-11-11T13:54:20.504Z,21.53
2018-11-11T13:56:50.273Z,22.11
2018-11-11T13:59:20.763Z,22.43
2018-11-11T14:01:55.207Z,21.85
2018-11-11T14:04:25.452Z,22.06
2018-11-11T14:06:55.273Z,21.31
2018-11-11T14:09:25.052Z,21.78
2018-11-11T14:11:55.180Z,22.00
2018-11-11T14:14:25.179Z,22.17
2018-11-11T14:16:56.899Z,20.89
2018-11-11T14:19:26.727Z,21.32
2018-11-11T14:21:56.513Z,19.86
2018-11-11T14:24:26.306Z,18.42
2018-11-11T14:26:56.396Z,18.62
2018-11-11T14:29:26.175Z,17.17
2018-11-11T14:31:55.906Z,17.21
2018-11-11T14:34:25.840Z,16.83
2018-11-11T14:36:55.731Z,16.78
2018-11-11T14:39:25.615Z,16.73
2018-11-11T14:41:55.402Z,16.45
2018-11-11T14:44:36.029Z,16.49
2018-11-11T14:47:07.256Z,16.52
2018-11-11T14:49:36.971Z,16.58
2018-11-11T14:52:08.788Z,16.32
2018-11-11T14:54:38.440Z,16.31
2018-11-11T14:57:32.763Z,16.24
2018-11-11T15:00:02.761Z,16.55
2018-11-11T15:02:33.360Z,16.13
2018-11-11T15:05:03.429Z,15.84
2018-11-11T15:07:33.244Z,15.59
2018-11-11T15:10:03.217Z,15.29
2018-11-11T15:12:33.041Z,14.96
2018-11-11T15:15:02.783Z,14.90
2018-11-11T15:17:32.512Z,14.62
2018-11-11T15:20:02.387Z,14.55
2018-11-11T15:22:32.022Z,14.47
2018-11-11T15:25:01.654Z,14.29
2018-11-11T15:27:31.393Z,14.13
2018-11-11T15:30:01.119Z,13.98
2018-11-11T15:32:30.754Z,13.82
2018-11-11T15:35:00.602Z,13.71
2018-11-11T15:37:30.481Z,13.57
2018-11-11T15:40:00.427Z,13.40
2018-11-11T15:42:30.499Z,13.22
2018-11-11T15:45:00.971Z,13.05
2018-11-11T15:47:31.518Z,12.86
2018-11-11T15:50:01.296Z,12.72
2018-11-11T15:52:32.412Z,12.55
2018-11-11T15:55:04.460Z,12.33
2018-11-11T15:57:37.702Z,12.20
2018-11-11T16:00:20.660Z,12.02
2018-11-11T16:02:50.413Z,11.84
2018-11-11T16:05:22.403Z,11.77
2018-11-11T16:07:53.411Z,11.72
2018-11-11T16:10:24.448Z,11.59
2018-11-11T16:12:54.447Z,11.54
2018-11-11T16:15:27.718Z,11.44
2018-11-11T16:17:59.711Z,11.35
2018-11-11T16:20:30.346Z,11.22
2018-11-11T16:23:02.820Z,11.17
2018-11-11T16:28:21.318Z,11.00
2018-11-11T16:30:52.759Z,10.94
2018-11-11T16:33:41.955Z,10.89
2018-11-11T16:36:11.654Z,10.73
2018-11-11T16:38:41.420Z,10.61
2018-11-11T16:41:11.389Z,10.59
2018-11-11T16:43:41.042Z,10.47
2018-11-11T16:46:10.751Z,10.39
2018-11-11T16:48:40.538Z,10.36
2018-11-11T16:51:11.670Z,10.39
2018-11-11T16:53:42.421Z,10.28
2018-11-11T16:56:18.339Z,10.18
2018-11-11T16:59:12.657Z,10.06
2018-11-11T17:01:45.292Z,9.99
2018-11-11T17:04:15.710Z,9.97
2018-11-11T17:06:47.092Z,9.94
2018-11-11T17:09:18.391Z,9.90
2018-11-11T17:12:00.531Z,9.83
2018-11-11T17:14:35.453Z,9.78
2018-11-11T17:17:05.966Z,9.81
2018-11-11T17:19:43.543Z,9.79
2018-11-11T17:22:22.687Z,9.77
2018-11-11T17:24:54.845Z,9.64
2018-11-11T17:27:43.730Z,9.48
2018-11-11T17:30:17.667Z,9.33
2018-11-11T17:32:48.602Z,9.27
2018-11-11T17:35:18.785Z,9.22
2018-11-11T17:37:48.932Z,9.43
2018-11-11T17:40:23.315Z,9.54
2018-11-11T17:43:05.658Z,9.64
2018-11-11T17:45:42.902Z,9.78
2018-11-11T17:48:13.304Z,9.81
2018-11-11T17:50:43.911Z,9.92
2018-11-11T17:53:18.753Z,9.97
2018-11-11T17:55:49.189Z,9.88
2018-11-11T17:58:22.663Z,9.72
2018-11-11T18:00:53.958Z,9.83
2018-11-11T18:03:23.817Z,10.00
2018-11-11T18:05:54.456Z,10.26
2018-11-11T18:08:24.422Z,10.61
2018-11-11T18:10:55.327Z,10.59
2018-11-11T18:13:26.947Z,10.59
2018-11-11T18:16:01.798Z,10.55
2018-11-11T18:18:36.422Z,10.54
2018-11-11T18:21:06.501Z,10.61
2018-11-11T18:23:36.443Z,10.58
2018-11-11T18:26:06.964Z,10.56
2018-11-11T18:28:36.773Z,10.62
2018-11-11T18:31:07.576Z,10.64
2018-11-11T18:33:37.956Z,10.62
2018-11-11T18:36:08.377Z,10.58
2018-11-11T18:38:39.295Z,10.51
2018-11-11T18:41:09.231Z,10.54
2018-11-11T18:43:39.471Z,10.54
2018-11-11T18:46:11.147Z,10.46
2018-11-11T18:48:56.268Z,10.47
2018-11-11T18:51:28.176Z,10.35
2018-11-11T18:53:57.957Z,10.16
2018-11-11T18:56:32.245Z,9.95
2018-11-11T18:59:02.470Z,9.90
2018-11-11T19:01:32.189Z,9.98
2018-11-11T19:04:03.156Z,10.02
2018-11-11T19:06:33.086Z,10.06
2018-11-11T19:09:03.118Z,10.13
2018-11-11T19:11:33.798Z,10.15
2018-11-11T19:14:04.457Z,10.08
2018-11-11T19:16:34.474Z,9.86
2018-11-11T19:19:05.114Z,9.73
2018-11-11T19:21:35.873Z,9.66
2018-11-11T19:24:06.752Z,9.60
2018-11-11T19:26:37.483Z,9.49
2018-11-11T19:29:08.191Z,9.36
2018-11-11T19:31:38.133Z,9.19
2018-11-11T19:34:24.447Z,9.10
2018-11-11T19:36:54.298Z,9.01
2018-11-11T19:39:29.385Z,8.93
2018-11-11T19:41:59.206Z,8.69
2018-11-11T19:44:29.933Z,8.54
2018-11-11T19:47:18.667Z,8.46
2018-11-11T19:49:48.640Z,8.47
2018-11-11T19:52:18.400Z,8.51
2018-11-11T19:54:48.223Z,8.63
2018-11-11T19:57:26.174Z,8.64
2018-11-11T19:59:56.667Z,8.55
2018-11-11T20:02:26.571Z,8.48
2018-11-11T20:04:56.307Z,8.45
2018-11-11T20:07:26.083Z,8.31
2018-11-11T20:09:55.983Z,8.27
2018-11-11T20:12:27.238Z,8.09
2018-11-11T20:14:56.992Z,7.96
2018-11-11T20:17:26.738Z,7.87
2018-11-11T20:20:00.878Z,7.86
2018-11-11T20:22:30.675Z,7.76
2018-11-11T20:25:00.446Z,7.82
2018-11-11T20:27:30.230Z,7.86
2018-11-11T20:30:00.082Z,7.83
2018-11-11T20:32:29.794Z,7.92
2018-11-11T20:34:59.622Z,7.88
2018-11-11T20:37:41.428Z,7.78
2018-11-11T20:40:22.023Z,7.62
2018-11-11T20:42:56.856Z,7.61
2018-11-11T20:45:31.672Z,7.61
2018-11-11T20:48:11.657Z,7.53
2018-11-11T20:50:42.779Z,7.46
2018-11-11T20:53:13.188Z,7.46
2018-11-11T20:55:53.548Z,7.39
2018-11-11T20:58:28.034Z,7.35
2018-11-11T21:01:03.541Z,7.33
2018-11-11T21:03:47.830Z,7.40
2018-11-11T21:06:21.307Z,7.44
2018-11-11T21:08:57.963Z,7.38
2018-11-11T21:11:27.809Z,7.30
2018-11-11T21:14:06.683Z,7.33
2018-11-11T21:16:39.201Z,7.34
2018-11-11T21:19:15.741Z,7.31
2018-11-11T21:21:52.402Z,7.47
2018-11-11T21:24:28.020Z,7.68
2018-11-11T21:27:05.600Z,7.78
2018-11-11T21:29:36.520Z,7.82
2018-11-11T21:32:17.019Z,7.87
2018-11-11T21:34:59.590Z,7.92
2018-11-11T21:37:34.192Z,7.98
2018-11-11T21:40:04.578Z,8.14
2018-11-11T21:42:40.464Z,8.13
2018-11-11T21:45:13.924Z,8.10
2018-11-11T21:47:49.597Z,8.06
2018-11-11T21:50:21.444Z,8.04
2018-11-11T21:53:41.347Z,8.03
2018-11-11T21:56:11.553Z,7.95
2018-11-11T21:58:42.675Z,7.90
2018-11-11T22:01:27.233Z,7.98
2018-11-11T22:04:11.476Z,8.05
2018-11-11T22:06:44.227Z,8.17
2018-11-11T22:09:23.265Z,8.15
2018-11-11T22:11:58.100Z,8.14
2018-11-11T22:14:28.348Z,8.10
2018-11-11T22:17:10.128Z,8.05
2018-11-11T22:19:42.850Z,8.12
2018-11-11T22:22:24.050Z,8.02
2018-11-11T22:24:56.096Z,7.82
2018-11-11T22:27:27.296Z,7.70
2018-11-11T22:30:03.534Z,7.59
2018-11-11T22:32:46.230Z,7.39
2018-11-11T22:35:18.037Z,7.33
2018-11-11T22:37:50.349Z,7.33
2018-11-11T22:40:21.993Z,7.25
2018-11-11T22:42:56.214Z,7.19
2018-11-11T22:45:27.345Z,7.16
2018-11-11T22:48:02.369Z,7.21
2018-11-11T22:50:32.513Z,7.32
2018-11-11T22:53:09.282Z,7.35
2018-11-11T22:55:41.073Z,7.46
2018-11-11T22:58:11.551Z,7.64
2018-11-11T23:00:49.772Z,7.80
2018-11-11T23:03:30.570Z,7.86
2018-11-11T23:06:08.663Z,7.78
2018-11-11T23:08:38.615Z,7.85
2018-11-11T23:11:09.200Z,7.94
2018-11-11T23:13:40.259Z,8.06
2018-11-11T23:16:19.629Z,8.18
2018-11-11T23:18:49.850Z,8.31
2018-11-11T23:21:26.537Z,8.42
2018-11-11T23:24:02.648Z,8.50
2018-11-11T23:26:32.893Z,8.59
2018-11-11T23:29:04.542Z,8.66
2018-11-11T23:31:41.575Z,8.80
2018-11-11T23:34:11.427Z,8.90
2018-11-11T23:36:41.147Z,8.92
2018-11-11T23:39:11.446Z,8.92
2018-11-11T23:41:50.742Z,8.80
2018-11-11T23:44:20.615Z,8.80
2018-11-11T23:46:54.150Z,8.79
2018-11-11T23:49:23.922Z,8.82
2018-11-11T23:51:53.971Z,8.87
2018-11-11T23:54:24.827Z,8.92
2018-11-11T23:56:54.484Z,9.06
2018-11-11T23:59:24.211Z,9.16
